Aviation Digital Data Service (ADDS)

Output produced by METARs form (1507 UTC 20 March 2019)
found at http://www.aviationweather.gov/metar/data/
 
Forecast for: UHHH (KHABAROVSK/NOVY , RU)
Text: TAF UHHH 201346Z 2015/2121 04006MPS 9999 SCT020
Forecast period: 1500 UTC 20 March 2019 to 2100 UTC 21 March 2019
Forecast type: FROM: standard forecast or significant change
Winds: from the NE (40 degrees) at 14 MPH (12 knots; 6.2 m/s)
Visibility: 6 or more miles 10+ km)
Ceiling: at least 12,000 feet AGL
Clouds: scattered clouds at 2000 feet AGL
Weather: no significant weather forecast for this period
Text: TEMPO 2020/2106 04008G13MPS 3100 -SHSN SCT008 SCT020CB
Forecast period: 2000 UTC 20 March 2019 to 0600 UTC 21 March 2019
Forecast type: TEMPORARY: The following changes expected for less than half the time period
Winds: from the NE (40 degrees) at 18 MPH (16 knots; 8.2 m/s)
gusting to 29 MPH (25 knots; 12.9 m/s)
Visibility: 1.93 miles (3.11 km)
Ceiling: at least 12,000 feet AGL
Clouds: scattered clouds at 800 feet AGL
scattered clouds at 2000 feet AGL
Weather: -SHSN  (light snow showers)